createdAt,value
2022-12-04T00:00:47.358Z,61.15
2022-12-04T00:03:54.914Z,55.90
2022-12-04T00:06:59.101Z,60.23
2022-12-04T00:10:03.937Z,59.20
2022-12-04T00:13:06.800Z,59.50
2022-12-04T00:16:15.693Z,58.72
2022-12-04T00:19:19.777Z,57.43
2022-12-04T00:22:22.894Z,61.03
2022-12-04T00:25:26.870Z,51.83
2022-12-04T00:28:29.760Z,65.35
2022-12-04T00:31:35.546Z,60.83
2022-12-04T00:34:38.282Z,61.33
2022-12-04T00:37:42.263Z,66.27
2022-12-04T00:40:51.787Z,63.47
2022-12-04T00:43:55.800Z,57.80
2022-12-04T00:47:01.595Z,59.80
2022-12-04T00:50:04.863Z,62.23
2022-12-04T00:53:08.829Z,53.93
2022-12-04T00:56:14.094Z,55.92
2022-12-04T00:59:18.077Z,58.03
2022-12-04T01:02:23.442Z,57.00
2022-12-04T01:05:26.154Z,60.90
2022-12-04T01:08:30.244Z,60.40
2022-12-04T01:11:33.590Z,59.50
2022-12-04T01:14:37.635Z,64.28
2022-12-04T01:17:41.739Z,58.38
2022-12-04T01:20:50.235Z,62.53
2022-12-04T01:23:54.494Z,62.03
2022-12-04T01:26:57.203Z,60.85
2022-12-04T01:30:01.336Z,59.25
2022-12-04T01:33:05.441Z,59.65
2022-12-04T01:36:12.240Z,59.37
2022-12-04T01:39:16.439Z,59.83
2022-12-04T01:42:20.467Z,58.35
2022-12-04T01:45:44.617Z,72.20
2022-12-04T01:48:53.967Z,59.75
2022-12-04T01:52:01.123Z,59.77
2022-12-04T01:55:03.896Z,61.53
2022-12-04T01:58:09.003Z,68.18
2022-12-04T02:01:11.948Z,66.07
2022-12-04T02:04:17.392Z,60.00
2022-12-04T02:07:20.343Z,61.27
2022-12-04T02:10:32.172Z,63.30
2022-12-04T02:13:44.451Z,66.40
2022-12-04T02:16:55.291Z,65.70
2022-12-04T02:24:03.488Z,68.20
2022-12-04T02:27:15.332Z,65.83
2022-12-04T02:30:19.734Z,69.05
2022-12-04T02:33:28.727Z,60.85
2022-12-04T02:36:37.508Z,74.38
2022-12-04T02:39:43.160Z,66.53
2022-12-04T02:42:51.009Z,63.27
2022-12-04T02:46:00.748Z,68.68
2022-12-04T02:52:33.065Z,74.93
2022-12-04T02:55:41.023Z,70.53
2022-12-04T02:58:49.357Z,67.07
2022-12-04T03:05:27.046Z,69.50
2022-12-04T03:08:36.339Z,66.75
2022-12-04T03:11:45.800Z,70.07
2022-12-04T03:14:53.695Z,67.20
2022-12-04T03:18:05.705Z,66.60
2022-12-04T03:21:14.069Z,71.32
2022-12-04T03:24:25.721Z,68.88
2022-12-04T03:27:36.622Z,70.73
2022-12-04T03:30:44.677Z,66.33
2022-12-04T03:33:50.837Z,64.90
2022-12-04T03:36:57.099Z,74.53
2022-12-04T03:40:06.305Z,63.53
2022-12-04T03:43:15.732Z,71.20
2022-12-04T03:46:28.173Z,61.97
2022-12-04T03:49:40.344Z,73.45
2022-12-04T03:52:53.585Z,70.88
2022-12-04T03:56:04.301Z,75.07
2022-12-04T03:59:13.711Z,75.10
2022-12-04T04:02:20.955Z,71.67
2022-12-04T04:05:29.668Z,76.82
2022-12-04T04:08:37.396Z,71.72
2022-12-04T04:11:46.611Z,69.90
2022-12-04T04:15:13.451Z,71.10
2022-12-04T04:18:33.711Z,78.97
2022-12-04T04:21:58.494Z,78.28
2022-12-04T04:25:05.202Z,74.50
2022-12-04T04:28:30.582Z,81.85
2022-12-04T04:31:40.477Z,65.97
2022-12-04T04:34:51.260Z,76.20
2022-12-04T04:38:03.950Z,71.55
2022-12-04T04:41:13.408Z,75.32
2022-12-04T04:44:23.497Z,65.28
2022-12-04T04:47:32.016Z,79.53
2022-12-04T04:50:37.505Z,62.63
2022-12-04T04:53:46.467Z,65.22
2022-12-04T04:56:50.455Z,72.55
2022-12-04T04:59:53.633Z,77.03
2022-12-04T05:02:56.690Z,74.23
2022-12-04T05:05:59.486Z,73.37
2022-12-04T05:09:04.887Z,77.50
2022-12-04T05:12:07.726Z,69.75
2022-12-04T05:15:12.760Z,75.60
2022-12-04T05:18:16.693Z,63.33
2022-12-04T05:21:19.700Z,67.83
2022-12-04T05:24:23.774Z,64.82
2022-12-04T05:27:28.735Z,66.40
2022-12-04T05:30:31.419Z,70.95
2022-12-04T05:33:35.404Z,71.77
2022-12-04T05:36:39.582Z,67.50
2022-12-04T05:39:44.040Z,68.78
2022-12-04T05:42:47.982Z,71.90
2022-12-04T05:45:50.695Z,67.38
2022-12-04T05:48:54.686Z,66.70
2022-12-04T05:51:58.879Z,65.30
2022-12-04T05:55:02.930Z,66.05
2022-12-04T05:58:07.074Z,74.60
2022-12-04T06:01:14.378Z,77.80
2022-12-04T06:07:38.872Z,69.63
2022-12-04T06:10:44.464Z,67.18
2022-12-04T06:13:48.807Z,66.03
2022-12-04T06:16:51.548Z,63.88
2022-12-04T06:19:57.267Z,68.83
2022-12-04T06:23:00.309Z,71.23
2022-12-04T06:26:07.448Z,65.00
2022-12-04T06:29:12.726Z,67.18
2022-12-04T06:32:21.459Z,76.72
2022-12-04T06:35:24.868Z,64.57
2022-12-04T06:41:50.965Z,67.75
2022-12-04T06:44:54.923Z,67.15
2022-12-04T06:47:58.860Z,67.53
2022-12-04T06:51:03.559Z,65.97
2022-12-04T06:54:07.540Z,64.72
2022-12-04T06:57:12.871Z,72.97
2022-12-04T07:00:16.747Z,65.78
2022-12-04T07:03:19.462Z,60.63
2022-12-04T07:06:24.935Z,65.03
2022-12-04T07:09:28.911Z,65.25
2022-12-04T07:12:33.025Z,72.50
2022-12-04T07:15:38.151Z,66.45
2022-12-04T07:18:41.006Z,68.57
2022-12-04T07:21:45.827Z,67.30
2022-12-04T07:24:48.533Z,59.03
2022-12-04T07:27:53.826Z,67.68
2022-12-04T07:30:56.548Z,68.25
2022-12-04T07:34:00.915Z,71.67
2022-12-04T07:37:03.771Z,68.82
2022-12-04T07:40:09.419Z,60.30
2022-12-04T07:43:13.503Z,59.72
2022-12-04T07:46:19.926Z,67.63
2022-12-04T07:49:22.704Z,62.47
2022-12-04T07:52:26.647Z,65.00
2022-12-04T07:55:29.306Z,63.35
2022-12-04T07:58:35.142Z,69.53
2022-12-04T08:01:37.908Z,69.53
2022-12-04T08:04:41.942Z,66.27
2022-12-04T08:07:46.188Z,69.70
2022-12-04T08:10:50.175Z,64.10
2022-12-04T08:13:58.026Z,64.63
2022-12-04T08:17:00.814Z,67.00
2022-12-04T08:20:05.115Z,64.30
2022-12-04T08:23:07.814Z,71.03
2022-12-04T08:26:12.815Z,63.17
2022-12-04T08:29:18.156Z,72.38
2022-12-04T08:32:20.841Z,68.18
2022-12-04T08:35:24.836Z,64.60
2022-12-04T08:38:27.514Z,70.88
2022-12-04T08:41:31.511Z,72.00
2022-12-04T08:44:35.539Z,66.45
2022-12-04T08:47:39.574Z,65.22
2022-12-04T08:50:46.249Z,67.33
2022-12-04T08:53:50.241Z,66.95
2022-12-04T08:56:54.190Z,61.30
2022-12-04T08:59:58.585Z,68.70
2022-12-04T09:03:02.726Z,67.13
2022-12-04T09:06:07.011Z,64.20
2022-12-04T09:09:10.968Z,61.58
2022-12-04T09:12:13.729Z,65.63
2022-12-04T09:15:19.261Z,69.53
2022-12-04T09:18:22.014Z,63.47
2022-12-04T09:21:27.334Z,69.70
2022-12-04T09:24:30.837Z,69.90
2022-12-04T09:27:38.760Z,68.30
2022-12-04T09:30:42.868Z,62.35
2022-12-04T09:33:47.486Z,63.22
2022-12-04T09:36:50.267Z,61.60
2022-12-04T09:39:54.476Z,67.40
2022-12-04T09:43:05.180Z,64.93
2022-12-04T09:46:14.995Z,63.05
2022-12-04T09:49:23.682Z,62.03
2022-12-04T09:52:42.349Z,61.43
2022-12-04T09:55:52.750Z,66.40
2022-12-04T09:59:02.567Z,68.32
2022-12-04T10:02:28.944Z,68.90
2022-12-04T10:05:43.906Z,66.47
2022-12-04T10:08:52.177Z,61.03
2022-12-04T10:12:04.052Z,64.15
2022-12-04T10:15:21.727Z,67.13
2022-12-04T10:18:42.613Z,67.32
2022-12-04T10:21:56.484Z,70.13
2022-12-04T10:25:04.846Z,67.50
2022-12-04T10:28:29.707Z,62.65
2022-12-04T10:31:33.752Z,65.78
2022-12-04T10:34:44.063Z,64.25
2022-12-04T10:37:52.472Z,68.70
2022-12-04T10:41:02.134Z,57.57
2022-12-04T10:44:06.583Z,60.40
2022-12-04T10:47:12.192Z,69.05
2022-12-04T10:50:21.747Z,69.85
2022-12-04T10:53:31.751Z,63.15
2022-12-04T10:56:35.780Z,57.33
2022-12-04T10:59:41.109Z,56.53
2022-12-04T11:02:45.427Z,60.47
2022-12-04T11:05:57.781Z,64.65
2022-12-04T11:09:03.245Z,61.28
2022-12-04T11:12:09.669Z,63.27
2022-12-04T11:15:16.955Z,57.53
2022-12-04T11:18:21.587Z,59.38
2022-12-04T11:21:30.058Z,60.72
2022-12-04T11:24:35.544Z,59.38
2022-12-04T11:31:04.467Z,59.25
2022-12-04T11:34:09.891Z,54.65
2022-12-04T11:40:49.386Z,56.45
2022-12-04T11:43:59.399Z,59.80
2022-12-04T11:47:24.574Z,61.67
2022-12-04T11:50:48.268Z,62.40
2022-12-04T11:54:01.296Z,59.55
2022-12-04T11:57:17.686Z,58.70
2022-12-04T12:03:58.740Z,63.00
2022-12-04T12:07:17.006Z,53.67
2022-12-04T12:10:30.447Z,59.63
2022-12-04T12:13:44.261Z,61.90
2022-12-04T12:16:59.282Z,54.13
2022-12-04T12:20:16.859Z,56.53
2022-12-04T12:23:31.363Z,57.63
2022-12-04T12:26:46.804Z,52.55
2022-12-04T12:29:59.171Z,55.63
2022-12-04T12:33:13.011Z,61.77
2022-12-04T12:36:17.756Z,53.67
2022-12-04T12:39:25.928Z,54.33
2022-12-04T12:42:36.877Z,55.17
2022-12-04T12:45:46.700Z,57.47
2022-12-04T12:48:58.577Z,49.87
2022-12-04T12:52:06.460Z,54.03
2022-12-04T12:55:19.282Z,56.22
2022-12-04T12:58:31.570Z,61.10
2022-12-04T13:01:46.711Z,51.85
2022-12-04T13:04:53.025Z,61.33
2022-12-04T13:08:05.898Z,59.78
2022-12-04T13:11:14.828Z,56.28
2022-12-04T13:14:20.179Z,54.40
2022-12-04T13:17:29.642Z,56.58
2022-12-04T13:20:41.438Z,52.43
2022-12-04T13:23:56.653Z,52.90
2022-12-04T13:30:41.045Z,54.45
2022-12-04T13:34:10.139Z,55.80
2022-12-04T13:37:33.097Z,60.03
2022-12-04T13:40:41.114Z,53.25
2022-12-04T13:43:49.588Z,55.92
2022-12-04T13:46:58.410Z,53.72
2022-12-04T13:50:29.679Z,57.38
2022-12-04T13:53:34.184Z,58.83
2022-12-04T13:56:38.124Z,58.22
2022-12-04T14:03:08.514Z,56.80
2022-12-04T14:06:25.424Z,58.65
2022-12-04T14:09:31.920Z,60.77
2022-12-04T14:12:38.818Z,51.72
2022-12-04T14:15:43.320Z,54.50
2022-12-04T14:18:50.708Z,57.90
2022-12-04T14:21:55.323Z,60.90
2022-12-04T14:25:21.247Z,59.07
2022-12-04T14:28:42.173Z,59.45
2022-12-04T14:31:45.151Z,58.63
2022-12-04T14:34:51.824Z,56.30
2022-12-04T14:37:58.362Z,61.67
2022-12-04T14:44:31.674Z,54.78
2022-12-04T14:47:45.237Z,55.35
2022-12-04T14:50:58.477Z,54.10
2022-12-04T14:54:11.628Z,60.78
2022-12-04T14:57:29.582Z,55.93
2022-12-04T15:00:33.685Z,58.35
2022-12-04T15:03:42.368Z,65.05
2022-12-04T15:06:55.401Z,69.35
2022-12-04T15:10:21.435Z,59.85
2022-12-04T15:13:29.294Z,61.23
2022-12-04T15:16:32.061Z,59.63
2022-12-04T15:19:36.071Z,62.22
2022-12-04T15:22:40.248Z,63.17
2022-12-04T15:25:47.999Z,66.28
2022-12-04T15:28:53.585Z,62.33
2022-12-04T15:35:29.410Z,60.83
2022-12-04T15:38:35.524Z,70.13
2022-12-04T15:41:38.636Z,70.20
2022-12-04T15:44:53.868Z,61.87
2022-12-04T15:47:58.607Z,62.42
2022-12-04T15:51:06.590Z,67.03
2022-12-04T15:54:22.329Z,63.17
2022-12-04T15:57:29.009Z,71.10
2022-12-04T16:00:37.440Z,64.73
2022-12-04T16:03:49.136Z,63.92
2022-12-04T16:06:54.948Z,69.25
2022-12-04T16:10:04.088Z,65.13
2022-12-04T16:13:08.402Z,71.25
2022-12-04T16:16:14.944Z,65.47
2022-12-04T16:19:28.435Z,64.22
2022-12-04T16:22:31.388Z,72.78
2022-12-04T16:25:36.731Z,60.88
2022-12-04T16:28:39.448Z,69.72
2022-12-04T16:31:43.509Z,68.93
2022-12-04T16:38:10.009Z,71.82
2022-12-04T16:41:16.523Z,63.90
2022-12-04T16:44:20.596Z,61.72
2022-12-04T16:47:23.720Z,68.00
2022-12-04T16:50:28.106Z,64.05
2022-12-04T16:53:30.836Z,72.30
2022-12-04T16:56:36.212Z,71.90
2022-12-04T16:59:40.348Z,74.75
2022-12-04T17:02:44.121Z,72.97
2022-12-04T17:05:48.194Z,75.45
2022-12-04T17:08:50.897Z,74.40
2022-12-04T17:11:56.207Z,72.13
2022-12-04T17:14:59.106Z,70.82
2022-12-04T17:18:07.392Z,75.03
2022-12-04T17:21:13.798Z,68.55
2022-12-04T17:24:17.777Z,64.85
2022-12-04T17:27:23.240Z,70.90
2022-12-04T17:30:31.372Z,70.97
2022-12-04T17:33:37.086Z,75.20
2022-12-04T17:36:41.025Z,71.18
2022-12-04T17:39:45.000Z,79.22
2022-12-04T17:42:50.573Z,71.88
2022-12-04T17:45:54.527Z,74.78
2022-12-04T17:48:59.565Z,76.87
2022-12-04T17:52:07.005Z,72.55
2022-12-04T17:55:10.202Z,72.97
2022-12-04T17:58:15.572Z,77.10
2022-12-04T18:01:20.650Z,70.20
2022-12-04T18:04:24.833Z,70.23
2022-12-04T18:07:27.722Z,74.68
2022-12-04T18:10:31.813Z,79.75
2022-12-04T18:13:36.190Z,74.47
2022-12-04T18:16:42.593Z,82.65
2022-12-04T18:19:45.376Z,69.50
2022-12-04T18:22:49.358Z,84.57
2022-12-04T18:25:57.166Z,67.72
2022-12-04T18:29:01.364Z,73.32
2022-12-04T18:32:05.583Z,69.82
2022-12-04T18:35:10.282Z,69.13
2022-12-04T18:38:14.220Z,65.93
2022-12-04T18:41:16.951Z,71.90
2022-12-04T18:44:22.735Z,68.35
2022-12-04T18:47:28.054Z,73.88
2022-12-04T18:50:30.754Z,65.77
2022-12-04T18:53:34.757Z,65.03
2022-12-04T18:56:37.753Z,59.53
2022-12-04T18:59:43.182Z,66.57
2022-12-04T19:02:46.917Z,73.25
2022-12-04T19:05:51.775Z,69.67
2022-12-04T19:08:54.502Z,69.43
2022-12-04T19:11:58.508Z,60.78
2022-12-04T19:15:02.659Z,62.42
2022-12-04T19:21:29.283Z,68.37
2022-12-04T19:24:32.213Z,73.68
2022-12-04T19:27:36.260Z,59.63
2022-12-04T19:30:40.346Z,65.63
2022-12-04T19:33:44.319Z,75.57
2022-12-04T19:36:47.282Z,67.60
2022-12-04T19:39:51.282Z,71.47
2022-12-04T19:43:01.108Z,60.83
2022-12-04T19:46:09.226Z,58.58
2022-12-04T19:52:34.714Z,67.53
2022-12-04T19:55:39.037Z,56.60
2022-12-04T19:58:43.615Z,72.07
2022-12-04T20:01:48.048Z,60.63
2022-12-04T20:04:52.128Z,64.85
2022-12-04T20:07:56.094Z,63.70
2022-12-04T20:11:04.375Z,61.20
2022-12-04T20:14:08.541Z,58.42
2022-12-04T20:17:13.917Z,61.42
2022-12-04T20:20:18.142Z,65.10
2022-12-04T20:23:20.833Z,57.23
2022-12-04T20:26:26.568Z,62.40
2022-12-04T20:29:29.264Z,54.92
2022-12-04T20:32:36.226Z,61.65
2022-12-04T20:35:40.986Z,64.03
2022-12-04T20:38:45.082Z,57.70
2022-12-04T20:41:48.136Z,59.08
2022-12-04T20:44:52.093Z,63.63
2022-12-04T20:47:58.462Z,64.88
2022-12-04T20:51:01.918Z,64.85
2022-12-04T20:54:06.711Z,57.93
2022-12-04T20:57:09.713Z,60.95
2022-12-04T21:00:15.724Z,60.42
2022-12-04T21:03:21.098Z,58.67
2022-12-04T21:06:29.629Z,58.42
2022-12-04T21:09:36.633Z,58.90
2022-12-04T21:12:56.823Z,61.22
2022-12-04T21:16:06.566Z,55.92
2022-12-04T21:19:12.111Z,57.92
2022-12-04T21:22:16.375Z,61.63
2022-12-04T21:25:19.210Z,62.57
2022-12-04T21:28:23.186Z,66.90
2022-12-04T21:34:53.142Z,60.95
2022-12-04T21:37:56.676Z,64.95
2022-12-04T21:41:00.585Z,57.33
2022-12-04T21:44:05.370Z,57.25
2022-12-04T21:47:09.472Z,64.65
2022-12-04T21:50:13.622Z,62.60
2022-12-04T21:53:17.694Z,61.70
2022-12-04T21:56:20.432Z,70.97
2022-12-04T21:59:24.513Z,58.13
2022-12-04T22:02:28.615Z,59.33
2022-12-04T22:05:35.398Z,62.08
2022-12-04T22:08:41.435Z,57.35
2022-12-04T22:11:44.769Z,59.20
2022-12-04T22:18:09.808Z,65.38
2022-12-04T22:24:37.127Z,62.30
2022-12-04T22:27:41.129Z,63.00
2022-12-04T22:30:44.112Z,66.32
2022-12-04T22:33:49.223Z,63.42
2022-12-04T22:36:54.551Z,66.15
2022-12-04T22:39:57.455Z,63.78
2022-12-04T22:43:01.618Z,71.50
2022-12-04T22:46:04.605Z,67.43
2022-12-04T22:49:08.656Z,62.37
2022-12-04T22:52:13.946Z,77.63
2022-12-04T22:55:16.754Z,63.25
2022-12-04T22:58:20.743Z,64.32
2022-12-04T23:01:25.162Z,64.15
2022-12-04T23:04:29.408Z,73.53
2022-12-04T23:07:33.536Z,63.70
2022-12-04T23:10:39.554Z,65.03
2022-12-04T23:13:44.275Z,69.60
2022-12-04T23:16:47.275Z,63.35
2022-12-04T23:19:51.413Z,65.40
2022-12-04T23:22:57.367Z,59.08
2022-12-04T23:26:03.051Z,71.15
2022-12-04T23:29:29.517Z,64.13
2022-12-04T23:32:31.613Z,62.40
2022-12-04T23:35:34.299Z,63.73
2022-12-04T23:38:42.722Z,65.70
2022-12-04T23:41:46.743Z,66.63
2022-12-04T23:44:49.447Z,67.82
2022-12-04T23:47:53.417Z,69.93
2022-12-04T23:50:56.252Z,64.07
2022-12-04T23:54:01.581Z,69.35
2022-12-04T23:57:05.692Z,62.75
